createdAt,value
2023-05-02T00:00:02.024Z,99970.34
2023-05-02T00:02:32.052Z,99969.09
2023-05-02T00:05:00.292Z,99965.69
2023-05-02T00:07:28.370Z,99966.53
2023-05-02T00:09:56.423Z,99963.47
2023-05-02T00:12:24.525Z,99966.63
2023-05-02T00:14:52.668Z,99960.97
2023-05-02T00:17:21.539Z,99966.94
2023-05-02T00:19:51.150Z,99963.56
2023-05-02T00:22:19.274Z,99970.66
2023-05-02T00:24:47.255Z,99970.16
2023-05-02T00:27:17.392Z,99967.81
2023-05-02T00:29:45.448Z,99975.44
2023-05-02T00:32:13.519Z,99960.84
2023-05-02T00:34:41.597Z,99965.06
2023-05-02T00:37:11.090Z,99971.94
2023-05-02T00:39:39.261Z,99971.75
2023-05-02T00:42:07.804Z,99964.13
2023-05-02T00:44:36.289Z,99950.84
2023-05-02T00:47:04.568Z,99968.66
2023-05-02T00:49:32.649Z,99962.41
2023-05-02T00:52:00.805Z,99965.50
2023-05-02T00:54:30.775Z,99968.16
2023-05-02T00:56:59.030Z,99970.81
2023-05-02T00:59:28.110Z,99973.13
2023-05-02T01:02:06.829Z,99968.16
2023-05-02T01:04:45.504Z,99962.84
2023-05-02T01:07:32.899Z,99963.06
2023-05-02T01:10:16.250Z,99968.59
2023-05-02T01:12:48.249Z,99965.94
2023-05-02T01:15:20.482Z,99966.16
2023-05-02T01:17:50.048Z,99967.31
2023-05-02T01:20:22.171Z,99966.81
2023-05-02T01:22:50.945Z,99961.91
2023-05-02T01:25:31.362Z,99960.03
2023-05-02T01:28:09.673Z,99963.63
2023-05-02T01:30:43.078Z,99965.31
2023-05-02T01:33:15.030Z,99962.34
2023-05-02T01:35:45.104Z,99962.97
2023-05-02T01:38:16.414Z,99954.50
2023-05-02T01:40:46.933Z,99957.44
2023-05-02T01:43:16.862Z,99961.38
2023-05-02T01:45:48.571Z,99957.34
2023-05-02T01:48:19.141Z,99956.59
2023-05-02T01:50:49.029Z,99955.09
2023-05-02T01:53:17.654Z,99945.38
2023-05-02T01:55:47.482Z,99951.72
2023-05-02T01:58:16.991Z,99945.78
2023-05-02T02:00:47.513Z,99950.66
2023-05-02T02:03:17.439Z,99950.44
2023-05-02T02:05:47.905Z,99948.31
2023-05-02T02:08:15.996Z,99937.09
2023-05-02T02:10:47.304Z,99945.13
2023-05-02T02:13:20.219Z,99940.56
2023-05-02T02:15:52.251Z,99941.94
2023-05-02T02:18:23.476Z,99940.25
2023-05-02T02:20:53.677Z,99932.69
2023-05-02T02:23:24.945Z,99937.06
2023-05-02T02:25:55.517Z,99934.72
2023-05-02T02:28:23.830Z,99934.28
2023-05-02T02:30:53.337Z,99932.88
2023-05-02T02:33:22.316Z,99926.59
2023-05-02T02:35:56.764Z,99937.19
2023-05-02T02:38:33.669Z,99930.94
2023-05-02T02:41:09.302Z,99928.41
2023-05-02T02:43:45.654Z,99934.25
2023-05-02T02:46:27.675Z,99934.25
2023-05-02T02:49:07.775Z,99930.41
2023-05-02T02:51:45.916Z,99930.06
2023-05-02T02:54:27.022Z,99934.38
2023-05-02T02:57:02.874Z,99932.88
2023-05-02T02:59:34.821Z,99935.00
2023-05-02T03:02:09.657Z,99937.56
2023-05-02T03:04:40.290Z,99940.50
2023-05-02T03:07:08.654Z,99940.69
2023-05-02T03:09:43.736Z,99948.94
2023-05-02T03:12:11.942Z,99943.53
2023-05-02T03:14:40.783Z,99933.25
2023-05-02T03:17:10.758Z,99949.22
2023-05-02T03:19:38.991Z,99952.06
2023-05-02T03:22:07.414Z,99949.59
2023-05-02T03:24:35.550Z,99948.75
2023-05-02T03:27:03.939Z,99951.41
2023-05-02T03:29:31.994Z,99952.44
2023-05-02T03:32:00.114Z,99944.50
2023-05-02T03:34:29.573Z,99946.13
2023-05-02T03:36:57.670Z,99960.00
2023-05-02T03:39:25.826Z,99957.16
2023-05-02T03:41:54.154Z,99950.22
2023-05-02T03:44:22.227Z,99955.56
2023-05-02T03:46:50.395Z,99953.56
2023-05-02T03:49:19.791Z,99963.66
2023-05-02T03:51:51.904Z,99959.84
2023-05-02T03:54:19.934Z,99956.06
2023-05-02T03:56:48.010Z,99963.50
2023-05-02T03:59:16.610Z,99958.44
2023-05-02T04:01:44.637Z,99955.94
2023-05-02T04:04:12.799Z,99967.84
2023-05-02T04:06:40.933Z,99973.88
2023-05-02T04:09:10.378Z,99965.91
2023-05-02T04:11:38.574Z,99962.84
2023-05-02T04:14:06.734Z,99969.97
2023-05-02T04:16:34.833Z,99967.44
2023-05-02T04:19:02.905Z,99955.34
2023-05-02T04:21:32.013Z,99972.72
2023-05-02T04:24:00.244Z,99975.88
2023-05-02T04:26:29.769Z,99971.09
2023-05-02T04:28:57.762Z,99972.56
2023-05-02T04:31:25.969Z,99974.16
2023-05-02T04:33:54.170Z,99976.47
2023-05-02T04:36:22.320Z,99977.50
2023-05-02T04:38:50.333Z,99973.56
2023-05-02T04:41:18.490Z,99967.06
2023-05-02T04:43:48.014Z,99979.31
2023-05-02T04:46:16.177Z,99983.53
2023-05-02T04:48:44.307Z,99986.34
2023-05-02T04:51:14.799Z,99990.56
2023-05-02T04:53:44.473Z,99975.06
2023-05-02T04:56:12.581Z,99987.81
2023-05-02T04:58:40.748Z,99987.22
2023-05-02T05:01:10.304Z,99979.31
2023-05-02T05:03:38.376Z,99982.56
2023-05-02T05:06:06.737Z,99981.50
2023-05-02T05:08:34.878Z,99982.41
2023-05-02T05:11:05.209Z,99983.22
2023-05-02T05:13:33.341Z,99986.03
2023-05-02T05:16:02.230Z,99995.97
2023-05-02T05:18:32.639Z,99989.16
2023-05-02T05:21:00.757Z,99989.13
2023-05-02T05:23:28.768Z,99993.19
2023-05-02T05:25:57.070Z,99994.16
2023-05-02T05:28:25.222Z,99998.94
2023-05-02T05:30:53.292Z,100004.00
2023-05-02T05:33:21.503Z,100011.72
2023-05-02T05:35:51.356Z,100005.91
2023-05-02T05:38:19.507Z,100000.44
2023-05-02T05:40:50.985Z,100008.94
2023-05-02T05:43:19.101Z,100005.66
2023-05-02T05:45:47.225Z,100007.94
2023-05-02T05:48:15.368Z,100019.84
2023-05-02T05:50:43.496Z,100027.88
2023-05-02T05:53:14.334Z,100020.03
2023-05-02T05:55:42.948Z,100021.47
2023-05-02T05:58:11.225Z,100010.97
2023-05-02T06:00:41.883Z,100019.63
2023-05-02T06:03:10.237Z,100018.75
2023-05-02T06:05:38.443Z,100023.81
2023-05-02T06:08:06.706Z,100027.03
2023-05-02T06:10:36.252Z,100024.78
2023-05-02T06:13:04.348Z,100023.91
2023-05-02T06:15:35.274Z,100030.47
2023-05-02T06:18:03.892Z,100019.09
2023-05-02T06:20:32.227Z,100025.81
2023-05-02T06:23:00.270Z,100011.13
2023-05-02T06:25:28.297Z,100035.34
2023-05-02T06:27:57.854Z,100029.63
2023-05-02T06:30:26.843Z,100027.59
2023-05-02T06:32:54.968Z,100037.19
2023-05-02T06:35:23.107Z,100024.53
2023-05-02T06:37:51.252Z,100032.31
2023-05-02T06:40:19.316Z,100040.38
2023-05-02T06:42:47.463Z,100029.91
2023-05-02T06:45:17.297Z,100036.13
2023-05-02T06:47:45.535Z,100037.38
2023-05-02T06:50:13.815Z,100037.47
2023-05-02T06:52:41.937Z,100038.59
2023-05-02T06:55:10.520Z,100032.94
2023-05-02T06:57:38.774Z,100035.91
2023-05-02T07:00:09.275Z,100029.25
2023-05-02T07:02:38.879Z,100035.13
2023-05-02T07:05:07.631Z,100036.00
2023-05-02T07:07:36.043Z,100031.63
2023-05-02T07:10:04.967Z,100036.31
2023-05-02T07:12:33.119Z,100034.00
2023-05-02T07:15:01.315Z,100031.22
2023-05-02T07:17:29.515Z,100037.59
2023-05-02T07:19:59.456Z,100030.56
2023-05-02T07:22:27.722Z,100035.28
2023-05-02T07:24:59.718Z,100023.31
2023-05-02T07:27:27.864Z,100028.19
2023-05-02T07:29:56.020Z,100037.56
2023-05-02T07:32:24.981Z,100031.38
2023-05-02T07:34:55.144Z,100037.72
2023-05-02T07:37:25.009Z,100048.91
2023-05-02T07:39:53.114Z,100050.78
2023-05-02T07:42:21.197Z,100034.31
2023-05-02T07:44:49.239Z,100020.91
2023-05-02T07:47:17.380Z,100046.94
2023-05-02T07:49:45.524Z,100045.91
2023-05-02T07:52:13.647Z,100042.13
2023-05-02T07:54:43.544Z,100047.94
2023-05-02T07:57:11.688Z,100040.50
2023-05-02T07:59:40.171Z,100043.50
2023-05-02T08:02:08.431Z,100037.19
2023-05-02T08:04:36.693Z,100042.75
2023-05-02T08:07:04.901Z,100038.03
2023-05-02T08:09:33.101Z,100038.69
2023-05-02T08:12:03.460Z,100035.34
2023-05-02T08:14:32.215Z,100029.91
2023-05-02T08:17:00.585Z,100042.09
2023-05-02T08:19:28.974Z,100042.41
2023-05-02T08:21:57.065Z,100053.84
2023-05-02T08:24:25.532Z,100052.56
2023-05-02T08:26:53.593Z,100041.34
2023-05-02T08:29:23.040Z,100051.69
2023-05-02T08:31:51.382Z,100036.13
2023-05-02T08:34:19.521Z,100045.56
2023-05-02T08:36:48.629Z,100038.19
2023-05-02T08:39:17.206Z,100034.78
2023-05-02T08:41:45.894Z,100032.31
2023-05-02T08:44:14.008Z,100032.59
2023-05-02T08:46:44.636Z,100029.75
2023-05-02T08:49:14.846Z,100019.53
2023-05-02T08:51:46.095Z,100020.69
2023-05-02T08:54:18.356Z,100033.63
2023-05-02T08:56:47.379Z,100030.72
2023-05-02T08:59:15.452Z,100032.31
2023-05-02T09:01:47.910Z,100025.84
2023-05-02T09:04:16.523Z,100030.22
2023-05-02T09:06:44.685Z,100023.53
2023-05-02T09:09:13.513Z,100021.88
2023-05-02T09:11:42.873Z,100017.44
2023-05-02T09:14:16.649Z,100014.13
2023-05-02T09:16:46.563Z,100009.06
2023-05-02T09:19:26.273Z,100014.81
2023-05-02T09:22:00.509Z,100023.19
2023-05-02T09:24:29.086Z,100011.09
2023-05-02T09:27:02.993Z,100008.06
2023-05-02T09:29:36.258Z,100019.00
2023-05-02T09:32:07.502Z,100016.28
2023-05-02T09:34:37.603Z,100019.53
2023-05-02T09:37:06.497Z,100017.47
2023-05-02T09:39:34.678Z,100015.91
2023-05-02T09:42:03.620Z,100016.72
2023-05-02T09:44:39.192Z,100015.56
2023-05-02T09:47:09.455Z,100017.63
2023-05-02T09:49:42.205Z,100008.44
2023-05-02T09:52:14.737Z,100009.00
2023-05-02T09:54:43.137Z,100003.25
2023-05-02T09:57:11.576Z,100002.34
2023-05-02T09:59:41.279Z,99992.63
2023-05-02T10:02:12.122Z,99994.03
2023-05-02T10:04:42.051Z,100007.00
2023-05-02T10:07:11.092Z,99999.78
2023-05-02T10:09:44.433Z,100011.56
2023-05-02T10:12:16.914Z,100018.41
2023-05-02T10:14:51.666Z,100015.63
2023-05-02T10:17:29.668Z,100016.25
2023-05-02T10:20:05.070Z,100013.50
2023-05-02T10:22:35.190Z,99994.28
2023-05-02T10:25:04.190Z,99997.47
2023-05-02T10:27:33.056Z,99999.53
2023-05-02T10:30:02.514Z,99995.22
2023-05-02T10:32:35.287Z,99995.22
2023-05-02T10:35:06.284Z,99992.41
2023-05-02T10:37:37.408Z,99996.59
2023-05-02T10:40:07.126Z,99992.41
2023-05-02T10:42:39.802Z,99989.38
2023-05-02T10:45:13.011Z,99999.22
2023-05-02T10:47:42.842Z,100003.00
2023-05-02T10:50:11.550Z,100000.47
2023-05-02T10:52:42.185Z,99990.84
2023-05-02T10:55:18.002Z,99991.06
2023-05-02T10:58:23.788Z,99990.72
2023-05-02T11:00:52.011Z,99984.84
2023-05-02T11:03:58.641Z,99986.06
2023-05-02T11:06:28.096Z,99990.50
2023-05-02T11:09:35.180Z,99980.88
2023-05-02T11:12:04.891Z,99971.84
2023-05-02T11:14:48.825Z,99969.34
2023-05-02T11:17:21.192Z,99956.91
2023-05-02T11:20:28.231Z,99963.81
2023-05-02T11:23:26.274Z,99947.34
2023-05-02T11:25:56.771Z,99960.03
2023-05-02T11:28:49.594Z,99950.34
2023-05-02T11:31:51.339Z,99945.19
2023-05-02T11:34:20.606Z,99946.59
2023-05-02T11:36:48.728Z,99951.34
2023-05-02T11:39:23.095Z,99949.91
2023-05-02T11:41:51.418Z,99942.09
2023-05-02T11:44:19.681Z,99946.38
2023-05-02T11:46:47.903Z,99949.75
2023-05-02T11:49:16.604Z,99954.81
2023-05-02T11:51:44.774Z,99950.81
2023-05-02T11:54:22.008Z,99937.88
2023-05-02T11:56:50.426Z,99953.22
2023-05-02T11:59:19.122Z,99945.03
2023-05-02T12:01:50.797Z,99944.06
2023-05-02T12:04:22.151Z,99933.22
2023-05-02T12:06:56.871Z,99940.22
2023-05-02T12:09:26.468Z,99934.91
2023-05-02T12:11:55.150Z,99931.56
2023-05-02T12:14:30.112Z,99936.19
2023-05-02T12:17:00.306Z,99935.03
2023-05-02T12:19:28.996Z,99939.72
2023-05-02T12:21:57.265Z,99928.91
2023-05-02T12:24:27.265Z,99926.88
2023-05-02T12:27:11.090Z,99925.06
2023-05-02T12:29:40.646Z,99933.00
2023-05-02T12:32:08.777Z,99931.97
2023-05-02T12:34:37.766Z,99928.16
2023-05-02T12:37:06.341Z,99918.94
2023-05-02T12:39:39.431Z,99917.34
2023-05-02T12:42:11.986Z,99925.28
2023-05-02T12:44:40.816Z,99936.72
2023-05-02T12:47:09.546Z,99932.19
2023-05-02T12:49:50.501Z,99929.69
2023-05-02T12:52:18.959Z,99920.13
2023-05-02T12:54:48.926Z,99922.78
2023-05-02T12:57:25.115Z,99914.84
2023-05-02T12:59:54.593Z,99918.16
2023-05-02T13:02:23.108Z,99931.09
2023-05-02T13:04:51.702Z,99917.78
2023-05-02T13:07:19.927Z,99924.84
2023-05-02T13:09:49.553Z,99924.00
2023-05-02T13:12:18.289Z,99919.94
2023-05-02T13:14:46.398Z,99919.78
2023-05-02T13:17:14.725Z,99907.44
2023-05-02T13:19:50.465Z,99910.47
2023-05-02T13:22:29.509Z,99905.94
2023-05-02T13:24:59.143Z,99899.59
2023-05-02T13:27:28.221Z,99901.59
2023-05-02T13:29:56.273Z,99898.19
2023-05-02T13:32:24.820Z,99902.19
2023-05-02T13:34:52.939Z,99902.19
2023-05-02T13:37:21.313Z,99906.03
2023-05-02T13:39:49.523Z,99903.81
2023-05-02T13:42:18.982Z,99907.38
2023-05-02T13:44:47.173Z,99895.72
2023-05-02T13:47:15.249Z,99903.53
2023-05-02T13:49:43.259Z,99896.50
2023-05-02T13:52:11.406Z,99896.03
2023-05-02T13:54:39.665Z,99905.63
2023-05-02T13:57:07.707Z,99902.75
2023-05-02T13:59:37.160Z,99901.41
2023-05-02T14:02:05.349Z,99900.06
2023-05-02T14:04:33.792Z,99898.19
2023-05-02T14:07:02.005Z,99905.25
2023-05-02T14:09:30.405Z,99899.84
2023-05-02T14:11:59.036Z,99899.19
2023-05-02T14:14:27.183Z,99907.59
2023-05-02T14:16:56.871Z,99901.44
2023-05-02T14:19:25.212Z,99895.50
2023-05-02T14:21:53.294Z,99902.94
2023-05-02T14:24:21.410Z,99900.59
2023-05-02T14:26:49.545Z,99899.22
2023-05-02T14:29:18.632Z,99900.50
2023-05-02T14:31:47.051Z,99897.69
2023-05-02T14:34:19.347Z,99884.56
2023-05-02T14:36:47.404Z,99895.94
2023-05-02T14:39:15.609Z,99899.50
2023-05-02T14:41:43.735Z,99890.25
2023-05-02T14:44:11.830Z,99897.00
2023-05-02T14:46:40.063Z,99898.66
2023-05-02T14:49:08.331Z,99901.06
2023-05-02T14:51:40.165Z,99907.50
2023-05-02T14:54:08.331Z,99906.69
2023-05-02T14:56:36.760Z,99904.50
2023-05-02T14:59:04.951Z,99908.53
2023-05-02T15:01:33.601Z,99911.22
2023-05-02T15:04:06.797Z,99913.06
2023-05-02T15:06:36.792Z,99907.38
2023-05-02T15:09:07.185Z,99907.19
2023-05-02T15:11:35.413Z,99909.88
2023-05-02T15:14:03.527Z,99917.59
2023-05-02T15:16:31.871Z,99909.53
2023-05-02T15:19:00.134Z,99913.53
2023-05-02T15:21:28.313Z,99906.69
2023-05-02T15:23:56.517Z,99899.59
2023-05-02T15:26:44.584Z,99892.06
2023-05-02T15:29:12.919Z,99898.78
2023-05-02T15:31:41.062Z,99900.09
2023-05-02T15:34:09.778Z,99906.84
2023-05-02T15:36:38.115Z,99899.91
2023-05-02T15:39:06.872Z,99901.13
2023-05-02T15:41:36.490Z,99899.97
2023-05-02T15:44:04.833Z,99899.44
2023-05-02T15:46:33.048Z,99889.31
2023-05-02T15:49:01.228Z,99905.16
2023-05-02T15:51:29.263Z,99892.34
2023-05-02T15:53:57.611Z,99896.19
2023-05-02T15:56:25.730Z,99894.41
2023-05-02T15:58:55.215Z,99897.78
2023-05-02T16:01:24.445Z,99900.06
2023-05-02T16:03:52.655Z,99897.09
2023-05-02T16:06:21.006Z,99891.03
2023-05-02T16:08:49.149Z,99888.97
2023-05-02T16:11:17.226Z,99899.22
2023-05-02T16:13:45.261Z,99892.00
2023-05-02T16:16:14.750Z,99895.66
2023-05-02T16:18:42.755Z,99900.31
2023-05-02T16:21:11.392Z,99896.25
2023-05-02T16:23:39.524Z,99893.50
2023-05-02T16:26:07.851Z,99899.34
2023-05-02T16:28:35.911Z,99899.16
2023-05-02T16:31:07.941Z,99900.72
2023-05-02T16:33:37.553Z,99896.50
2023-05-02T16:36:06.566Z,99900.13
2023-05-02T16:38:36.432Z,99906.41
2023-05-02T16:41:09.147Z,99902.97
2023-05-02T16:43:37.719Z,99901.78
2023-05-02T16:46:07.425Z,99911.47
2023-05-02T16:48:37.212Z,99902.72
2023-05-02T16:51:05.667Z,99914.06
2023-05-02T16:53:33.700Z,99918.25
2023-05-02T16:56:01.989Z,99919.69
2023-05-02T16:58:30.349Z,99932.09
2023-05-02T17:01:01.326Z,99941.03
2023-05-02T17:03:30.133Z,99939.78
2023-05-02T17:06:02.225Z,99944.59
2023-05-02T17:08:30.636Z,99944.34
2023-05-02T17:10:59.030Z,99938.50
2023-05-02T17:13:27.243Z,99932.72
2023-05-02T17:15:55.999Z,99940.34
2023-05-02T17:18:24.297Z,99947.63
2023-05-02T17:20:52.505Z,99953.53
2023-05-02T17:23:22.096Z,99954.78
2023-05-02T17:25:51.004Z,99954.34
2023-05-02T17:28:20.263Z,99950.94
2023-05-02T17:30:48.916Z,99960.97
2023-05-02T17:33:17.762Z,99957.28
2023-05-02T17:35:46.137Z,99965.13
2023-05-02T17:38:14.311Z,99964.81
2023-05-02T17:40:44.648Z,99964.78
2023-05-02T17:43:12.884Z,99966.84
2023-05-02T17:45:41.940Z,99965.25
2023-05-02T17:48:10.519Z,99960.44
2023-05-02T17:50:39.535Z,99965.78
2023-05-02T17:53:08.486Z,99969.69
2023-05-02T17:55:41.906Z,99962.66
2023-05-02T17:58:11.996Z,99964.22
2023-05-02T18:00:41.067Z,99963.75
2023-05-02T18:03:10.167Z,99963.19
2023-05-02T18:05:44.311Z,99973.84
2023-05-02T18:08:13.993Z,99967.56
2023-05-02T18:10:44.560Z,99959.47
2023-05-02T18:13:14.261Z,99960.19
2023-05-02T18:15:42.827Z,99971.56
2023-05-02T18:18:11.659Z,99974.38
2023-05-02T18:20:41.042Z,99976.06
2023-05-02T18:23:09.523Z,99988.69
2023-05-02T18:25:40.579Z,99989.44
2023-05-02T18:28:09.895Z,99995.88
2023-05-02T18:30:42.122Z,99990.50
2023-05-02T18:33:11.192Z,100010.69
2023-05-02T18:35:39.869Z,100012.03
2023-05-02T18:38:08.381Z,100009.84
2023-05-02T18:40:37.135Z,100019.09
2023-05-02T18:43:06.063Z,100014.63
2023-05-02T18:45:38.576Z,100009.91
2023-05-02T18:48:08.389Z,100016.84
2023-05-02T18:50:37.422Z,100018.69
2023-05-02T18:53:05.784Z,100021.13
2023-05-02T18:55:34.965Z,100015.13
2023-05-02T18:58:06.809Z,100032.78
2023-05-02T19:00:37.194Z,100027.72
2023-05-02T19:03:08.141Z,100038.59
2023-05-02T19:05:37.434Z,100048.41
2023-05-02T19:08:06.463Z,100048.78
2023-05-02T19:10:35.387Z,100068.13
2023-05-02T19:13:03.832Z,100077.31
2023-05-02T19:15:32.110Z,100080.09
2023-05-02T19:18:00.989Z,100088.41
2023-05-02T19:20:31.702Z,100095.06
2023-05-02T19:23:18.385Z,100096.34
2023-05-02T19:25:49.669Z,100093.19
2023-05-02T19:28:18.314Z,100096.34
2023-05-02T19:30:47.279Z,100098.16
2023-05-02T19:33:15.655Z,100089.13
2023-05-02T19:35:46.160Z,100076.19
2023-05-02T19:38:15.371Z,100060.06
2023-05-02T19:40:43.944Z,100058.72
2023-05-02T19:43:13.332Z,100060.94
2023-05-02T19:45:42.470Z,100058.88
2023-05-02T19:48:12.717Z,100063.16
2023-05-02T19:50:42.024Z,100066.78
2023-05-02T19:53:11.976Z,100067.41
2023-05-02T19:55:40.664Z,100068.47
2023-05-02T19:58:09.034Z,100072.50
2023-05-02T20:00:38.112Z,100063.06
2023-05-02T20:03:07.364Z,100062.53
2023-05-02T20:05:36.439Z,100069.78
2023-05-02T20:08:07.360Z,100073.00
2023-05-02T20:10:37.397Z,100078.03
2023-05-02T20:13:05.482Z,100084.94
2023-05-02T20:15:34.028Z,100079.28
2023-05-02T20:18:02.747Z,100084.72
2023-05-02T20:20:31.489Z,100086.19
2023-05-02T20:23:00.044Z,100098.28
2023-05-02T20:25:30.210Z,100110.38
2023-05-02T20:28:00.151Z,100117.63
2023-05-02T20:30:28.586Z,100122.81
2023-05-02T20:32:59.465Z,100131.03
2023-05-02T20:35:32.417Z,100143.78
2023-05-02T20:38:01.853Z,100148.47
2023-05-02T20:40:32.464Z,100142.28
2023-05-02T20:43:02.260Z,100133.47
2023-05-02T20:45:30.508Z,100125.13
2023-05-02T20:47:58.698Z,100134.69
2023-05-02T20:50:26.981Z,100120.25
2023-05-02T20:52:55.620Z,100111.78
2023-05-02T20:55:23.917Z,100118.34
2023-05-02T20:57:53.521Z,100110.28
2023-05-02T21:00:23.627Z,100101.94
2023-05-02T21:02:51.811Z,100104.16
2023-05-02T21:05:20.099Z,100091.88
2023-05-02T21:07:48.254Z,100109.56
2023-05-02T21:10:16.416Z,100110.22
2023-05-02T21:12:44.552Z,100126.97
2023-05-02T21:15:14.468Z,100122.53
2023-05-02T21:17:43.974Z,100128.50
2023-05-02T21:20:13.282Z,100128.19
2023-05-02T21:22:44.911Z,100130.94
2023-05-02T21:25:13.381Z,100126.47
2023-05-02T21:27:41.522Z,100133.72
2023-05-02T21:30:10.849Z,100136.25
2023-05-02T21:32:39.000Z,100141.47
2023-05-02T21:35:09.676Z,100136.47
2023-05-02T21:37:37.829Z,100135.22
2023-05-02T21:40:07.152Z,100135.72
2023-05-02T21:42:35.360Z,100140.06
2023-05-02T21:45:03.510Z,100142.53
2023-05-02T21:47:33.365Z,100144.84
2023-05-02T21:50:01.736Z,100157.59
2023-05-02T21:52:31.784Z,100158.09
2023-05-02T21:54:59.846Z,100159.84
2023-05-02T21:57:30.672Z,100153.56
2023-05-02T21:59:58.893Z,100164.25
2023-05-02T22:02:27.836Z,100164.34
2023-05-02T22:04:57.887Z,100165.41
2023-05-02T22:07:26.285Z,100177.50
2023-05-02T22:09:55.875Z,100179.31
2023-05-02T22:12:25.288Z,100185.03
2023-05-02T22:14:53.424Z,100188.22
2023-05-02T22:17:22.828Z,100194.81
2023-05-02T22:19:51.855Z,100190.25
2023-05-02T22:22:19.977Z,100193.09
2023-05-02T22:24:48.356Z,100196.50
2023-05-02T22:27:18.020Z,100191.53
2023-05-02T22:29:46.257Z,100198.00
2023-05-02T22:32:14.336Z,100203.13
2023-05-02T22:34:42.626Z,100204.59
2023-05-02T22:37:10.849Z,100197.38
2023-05-02T22:39:38.975Z,100200.78
2023-05-02T22:42:07.221Z,100202.69
2023-05-02T22:44:50.538Z,100200.22
2023-05-02T22:47:23.001Z,100188.13
2023-05-02T22:49:52.305Z,100184.22
2023-05-02T22:52:20.895Z,100191.34
2023-05-02T22:54:49.230Z,100186.97
2023-05-02T22:57:23.992Z,100188.88
2023-05-02T22:59:53.597Z,100191.44
2023-05-02T23:02:21.810Z,100191.00
2023-05-02T23:04:49.986Z,100192.91
2023-05-02T23:07:18.063Z,100185.91
2023-05-02T23:09:46.129Z,100195.03
2023-05-02T23:12:14.224Z,100191.41
2023-05-02T23:14:42.459Z,100200.53
2023-05-02T23:17:11.999Z,100187.50
2023-05-02T23:19:40.081Z,100190.16
2023-05-02T23:22:08.159Z,100199.78
2023-05-02T23:24:36.360Z,100206.66
2023-05-02T23:27:04.868Z,100196.06
2023-05-02T23:29:33.060Z,100201.38
2023-05-02T23:32:01.368Z,100200.75
2023-05-02T23:34:31.741Z,100191.84
2023-05-02T23:36:59.861Z,100173.06
2023-05-02T23:39:27.999Z,100182.25
2023-05-02T23:41:56.118Z,100190.41
2023-05-02T23:44:24.335Z,100188.50
2023-05-02T23:46:52.532Z,100190.50
2023-05-02T23:49:21.402Z,100188.94
2023-05-02T23:51:50.936Z,100185.50
2023-05-02T23:54:19.135Z,100179.25
2023-05-02T23:56:48.035Z,100181.81
2023-05-02T23:59:16.308Z,100183.50
